sensor_id;sensor_type;location;lat;lon;timestamp;P1;durP1;ratioP1;P2;durP2;ratioP2
75550;SDS011;65071;53.082;18.218;2023-08-12T00:01:59;5.70;;;3.40;;
75550;SDS011;65071;53.082;18.218;2023-08-12T00:04:26;6.20;;;3.60;;
75550;SDS011;65071;53.082;18.218;2023-08-12T00:06:52;6.20;;;3.70;;
75550;SDS011;65071;53.082;18.218;2023-08-12T00:09:19;6.40;;;3.70;;
75550;SDS011;65071;53.082;18.218;2023-08-12T00:11:45;5.80;;;3.80;;
75550;SDS011;65071;53.082;18.218;2023-08-12T00:14:12;7.40;;;3.60;;
75550;SDS011;65071;53.082;18.218;2023-08-12T00:16:39;5.50;;;3.40;;
75550;SDS011;65071;53.082;18.218;2023-08-12T00:19:06;5.60;;;3.30;;
75550;SDS011;65071;53.082;18.218;2023-08-12T00:21:32;6.10;;;3.60;;
75550;SDS011;65071;53.082;18.218;2023-08-12T00:23:59;5.30;;;3.40;;
75550;SDS011;65071;53.082;18.218;2023-08-12T00:26:25;4.70;;;3.50;;
75550;SDS011;65071;53.082;18.218;2023-08-12T00:28:53;8.50;;;3.70;;
75550;SDS011;65071;53.082;18.218;2023-08-12T00:31:20;5.00;;;4.00;;
75550;SDS011;65071;53.082;18.218;2023-08-12T00:33:47;5.50;;;3.50;;
75550;SDS011;65071;53.082;18.218;2023-08-12T00:36:13;5.20;;;3.40;;
75550;SDS011;65071;53.082;18.218;2023-08-12T00:38:40;5.80;;;3.30;;
75550;SDS011;65071;53.082;18.218;2023-08-12T00:41:07;6.00;;;3.70;;
75550;SDS011;65071;53.082;18.218;2023-08-12T00:43:33;4.00;;;3.10;;
75550;SDS011;65071;53.082;18.218;2023-08-12T00:46:00;5.50;;;3.30;;
75550;SDS011;65071;53.082;18.218;2023-08-12T00:48:27;4.90;;;3.50;;
75550;SDS011;65071;53.082;18.218;2023-08-12T00:50:53;7.40;;;3.40;;
75550;SDS011;65071;53.082;18.218;2023-08-12T00:53:20;4.70;;;3.60;;
75550;SDS011;65071;53.082;18.218;2023-08-12T00:55:47;4.70;;;3.30;;
75550;SDS011;65071;53.082;18.218;2023-08-12T00:58:13;4.90;;;4.00;;
75550;SDS011;65071;53.082;18.218;2023-08-12T01:00:41;5.00;;;3.40;;
75550;SDS011;65071;53.082;18.218;2023-08-12T01:03:08;5.70;;;3.60;;
75550;SDS011;65071;53.082;18.218;2023-08-12T01:05:34;5.60;;;3.30;;
75550;SDS011;65071;53.082;18.218;2023-08-12T01:08:01;4.50;;;3.20;;
75550;SDS011;65071;53.082;18.218;2023-08-12T01:10:29;6.00;;;2.80;;
75550;SDS011;65071;53.082;18.218;2023-08-12T01:13:11;4.10;;;3.20;;
75550;SDS011;65071;53.082;18.218;2023-08-12T01:15:46;5.30;;;3.00;;
75550;SDS011;65071;53.082;18.218;2023-08-12T01:18:17;4.20;;;3.10;;
75550;SDS011;65071;53.082;18.218;2023-08-12T01:20:44;4.10;;;3.20;;
75550;SDS011;65071;53.082;18.218;2023-08-12T01:23:13;4.50;;;3.00;;
75550;SDS011;65071;53.082;18.218;2023-08-12T01:25:41;4.60;;;3.20;;
75550;SDS011;65071;53.082;18.218;2023-08-12T01:28:08;5.50;;;3.50;;
75550;SDS011;65071;53.082;18.218;2023-08-12T01:30:45;4.10;;;2.90;;
75550;SDS011;65071;53.082;18.218;2023-08-12T01:33:28;4.40;;;3.60;;
75550;SDS011;65071;53.082;18.218;2023-08-12T01:36:23;4.30;;;3.00;;
75550;SDS011;65071;53.082;18.218;2023-08-12T01:38:51;5.40;;;3.10;;
75550;SDS011;65071;53.082;18.218;2023-08-12T01:41:18;3.20;;;2.90;;
75550;SDS011;65071;53.082;18.218;2023-08-12T01:43:47;5.40;;;3.50;;
75550;SDS011;65071;53.082;18.218;2023-08-12T01:46:14;3.60;;;3.00;;
75550;SDS011;65071;53.082;18.218;2023-08-12T01:48:40;4.60;;;3.20;;
75550;SDS011;65071;53.082;18.218;2023-08-12T01:51:07;4.70;;;3.30;;
75550;SDS011;65071;53.082;18.218;2023-08-12T01:53:33;6.30;;;3.50;;
75550;SDS011;65071;53.082;18.218;2023-08-12T01:56:00;5.10;;;3.40;;
75550;SDS011;65071;53.082;18.218;2023-08-12T01:58:27;4.30;;;3.10;;
75550;SDS011;65071;53.082;18.218;2023-08-12T02:00:53;4.50;;;3.50;;
75550;SDS011;65071;53.082;18.218;2023-08-12T02:03:20;3.90;;;3.30;;
75550;SDS011;65071;53.082;18.218;2023-08-12T02:05:46;4.70;;;3.30;;
75550;SDS011;65071;53.082;18.218;2023-08-12T02:08:13;4.40;;;3.20;;
75550;SDS011;65071;53.082;18.218;2023-08-12T02:10:40;5.30;;;3.70;;
75550;SDS011;65071;53.082;18.218;2023-08-12T02:13:06;4.50;;;3.50;;
75550;SDS011;65071;53.082;18.218;2023-08-12T02:15:33;9.10;;;4.80;;
75550;SDS011;65071;53.082;18.218;2023-08-12T02:18:00;5.50;;;3.80;;
75550;SDS011;65071;53.082;18.218;2023-08-12T02:20:26;5.60;;;3.70;;
75550;SDS011;65071;53.082;18.218;2023-08-12T02:22:54;5.30;;;3.60;;
75550;SDS011;65071;53.082;18.218;2023-08-12T02:25:20;5.70;;;3.70;;
75550;SDS011;65071;53.082;18.218;2023-08-12T02:27:47;6.80;;;3.60;;
75550;SDS011;65071;53.082;18.218;2023-08-12T02:30:13;5.20;;;3.70;;
75550;SDS011;65071;53.082;18.218;2023-08-12T02:32:40;5.30;;;3.50;;
75550;SDS011;65071;53.082;18.218;2023-08-12T02:37:36;4.80;;;3.30;;
75550;SDS011;65071;53.082;18.218;2023-08-12T02:40:03;4.90;;;3.60;;
75550;SDS011;65071;53.082;18.218;2023-08-12T02:42:33;7.10;;;3.70;;
75550;SDS011;65071;53.082;18.218;2023-08-12T02:45:00;4.50;;;3.10;;
75550;SDS011;65071;53.082;18.218;2023-08-12T02:47:27;7.10;;;4.10;;
75550;SDS011;65071;53.082;18.218;2023-08-12T02:49:54;4.50;;;3.10;;
75550;SDS011;65071;53.082;18.218;2023-08-12T02:52:20;3.90;;;3.30;;
75550;SDS011;65071;53.082;18.218;2023-08-12T02:54:47;5.00;;;3.90;;
75550;SDS011;65071;53.082;18.218;2023-08-12T02:57:13;4.50;;;3.30;;
75550;SDS011;65071;53.082;18.218;2023-08-12T02:59:40;7.70;;;3.80;;
75550;SDS011;65071;53.082;18.218;2023-08-12T03:02:07;4.20;;;3.40;;
75550;SDS011;65071;53.082;18.218;2023-08-12T03:04:34;5.70;;;3.90;;
75550;SDS011;65071;53.082;18.218;2023-08-12T03:07:00;5.40;;;3.60;;
75550;SDS011;65071;53.082;18.218;2023-08-12T03:09:27;6.60;;;3.50;;
75550;SDS011;65071;53.082;18.218;2023-08-12T03:11:54;7.40;;;4.00;;
75550;SDS011;65071;53.082;18.218;2023-08-12T03:14:20;5.80;;;3.60;;
75550;SDS011;65071;53.082;18.218;2023-08-12T03:16:47;4.80;;;3.60;;
75550;SDS011;65071;53.082;18.218;2023-08-12T03:19:13;5.80;;;3.70;;
75550;SDS011;65071;53.082;18.218;2023-08-12T03:21:40;5.50;;;3.90;;
75550;SDS011;65071;53.082;18.218;2023-08-12T03:24:07;7.60;;;4.50;;
75550;SDS011;65071;53.082;18.218;2023-08-12T03:26:34;7.80;;;4.80;;
75550;SDS011;65071;53.082;18.218;2023-08-12T03:29:01;8.10;;;4.80;;
75550;SDS011;65071;53.082;18.218;2023-08-12T03:31:28;6.90;;;4.90;;
75550;SDS011;65071;53.082;18.218;2023-08-12T03:33:54;6.10;;;4.50;;
75550;SDS011;65071;53.082;18.218;2023-08-12T03:36:21;6.30;;;4.50;;
75550;SDS011;65071;53.082;18.218;2023-08-12T03:38:48;7.30;;;5.10;;
75550;SDS011;65071;53.082;18.218;2023-08-12T03:41:17;9.80;;;5.70;;
75550;SDS011;65071;53.082;18.218;2023-08-12T03:43:43;9.70;;;5.60;;
75550;SDS011;65071;53.082;18.218;2023-08-12T03:46:10;6.00;;;5.30;;
75550;SDS011;65071;53.082;18.218;2023-08-12T03:48:37;9.80;;;5.40;;
75550;SDS011;65071;53.082;18.218;2023-08-12T03:51:03;10.20;;;6.30;;
75550;SDS011;65071;53.082;18.218;2023-08-12T03:53:30;8.00;;;5.50;;
75550;SDS011;65071;53.082;18.218;2023-08-12T03:55:56;8.80;;;6.10;;
75550;SDS011;65071;53.082;18.218;2023-08-12T03:58:23;9.10;;;5.80;;
75550;SDS011;65071;53.082;18.218;2023-08-12T04:00:50;9.40;;;5.40;;
75550;SDS011;65071;53.082;18.218;2023-08-12T04:03:16;8.80;;;5.90;;
75550;SDS011;65071;53.082;18.218;2023-08-12T04:05:49;10.00;;;5.50;;
75550;SDS011;65071;53.082;18.218;2023-08-12T04:08:19;7.70;;;5.50;;
75550;SDS011;65071;53.082;18.218;2023-08-12T04:10:48;9.50;;;6.30;;
75550;SDS011;65071;53.082;18.218;2023-08-12T04:13:15;10.00;;;6.90;;
75550;SDS011;65071;53.082;18.218;2023-08-12T04:15:41;10.90;;;7.10;;
75550;SDS011;65071;53.082;18.218;2023-08-12T04:18:08;9.50;;;6.90;;
75550;SDS011;65071;53.082;18.218;2023-08-12T04:20:36;11.20;;;6.40;;
75550;SDS011;65071;53.082;18.218;2023-08-12T04:23:03;10.50;;;6.50;;
75550;SDS011;65071;53.082;18.218;2023-08-12T04:25:30;8.50;;;5.80;;
75550;SDS011;65071;53.082;18.218;2023-08-12T04:27:57;7.60;;;5.10;;
75550;SDS011;65071;53.082;18.218;2023-08-12T04:30:24;6.60;;;5.00;;
75550;SDS011;65071;53.082;18.218;2023-08-12T04:32:51;8.90;;;6.60;;
75550;SDS011;65071;53.082;18.218;2023-08-12T04:35:17;11.40;;;7.20;;
75550;SDS011;65071;53.082;18.218;2023-08-12T04:37:44;9.80;;;7.00;;
75550;SDS011;65071;53.082;18.218;2023-08-12T04:40:11;8.80;;;6.90;;
75550;SDS011;65071;53.082;18.218;2023-08-12T04:42:37;8.00;;;6.50;;
75550;SDS011;65071;53.082;18.218;2023-08-12T04:45:04;9.60;;;6.00;;
75550;SDS011;65071;53.082;18.218;2023-08-12T04:47:32;9.30;;;6.00;;
75550;SDS011;65071;53.082;18.218;2023-08-12T04:50:00;8.80;;;5.90;;
75550;SDS011;65071;53.082;18.218;2023-08-12T04:52:27;7.40;;;5.80;;
75550;SDS011;65071;53.082;18.218;2023-08-12T04:54:54;11.00;;;6.00;;
75550;SDS011;65071;53.082;18.218;2023-08-12T04:57:21;8.20;;;5.40;;
75550;SDS011;65071;53.082;18.218;2023-08-12T04:59:48;6.70;;;5.90;;
75550;SDS011;65071;53.082;18.218;2023-08-12T05:02:14;7.30;;;4.90;;
75550;SDS011;65071;53.082;18.218;2023-08-12T05:04:41;6.10;;;4.70;;
75550;SDS011;65071;53.082;18.218;2023-08-12T05:07:08;5.50;;;4.70;;
75550;SDS011;65071;53.082;18.218;2023-08-12T05:09:35;5.80;;;4.50;;
75550;SDS011;65071;53.082;18.218;2023-08-12T05:12:02;8.50;;;4.60;;
75550;SDS011;65071;53.082;18.218;2023-08-12T05:14:29;6.00;;;4.40;;
75550;SDS011;65071;53.082;18.218;2023-08-12T05:16:56;7.00;;;4.60;;
75550;SDS011;65071;53.082;18.218;2023-08-12T05:19:23;7.30;;;5.30;;
75550;SDS011;65071;53.082;18.218;2023-08-12T05:21:49;5.60;;;4.30;;
75550;SDS011;65071;53.082;18.218;2023-08-12T05:24:16;7.00;;;4.90;;
75550;SDS011;65071;53.082;18.218;2023-08-12T05:26:42;6.90;;;4.80;;
75550;SDS011;65071;53.082;18.218;2023-08-12T05:29:09;6.20;;;4.60;;
75550;SDS011;65071;53.082;18.218;2023-08-12T05:31:35;5.50;;;4.80;;
75550;SDS011;65071;53.082;18.218;2023-08-12T05:34:02;6.80;;;4.60;;
75550;SDS011;65071;53.082;18.218;2023-08-12T05:36:29;6.40;;;5.10;;
75550;SDS011;65071;53.082;18.218;2023-08-12T05:38:55;6.30;;;4.90;;
75550;SDS011;65071;53.082;18.218;2023-08-12T05:41:22;8.40;;;5.10;;
75550;SDS011;65071;53.082;18.218;2023-08-12T05:43:48;6.00;;;4.60;;
75550;SDS011;65071;53.082;18.218;2023-08-12T05:46:15;7.70;;;5.20;;
75550;SDS011;65071;53.082;18.218;2023-08-12T05:48:41;6.80;;;4.30;;
75550;SDS011;65071;53.082;18.218;2023-08-12T05:51:08;6.70;;;4.90;;
75550;SDS011;65071;53.082;18.218;2023-08-12T05:53:34;7.00;;;4.70;;
75550;SDS011;65071;53.082;18.218;2023-08-12T05:56:01;6.00;;;4.90;;
75550;SDS011;65071;53.082;18.218;2023-08-12T05:58:28;7.50;;;5.00;;
75550;SDS011;65071;53.082;18.218;2023-08-12T06:00:54;7.10;;;5.20;;
75550;SDS011;65071;53.082;18.218;2023-08-12T06:03:21;5.80;;;4.60;;
75550;SDS011;65071;53.082;18.218;2023-08-12T06:05:47;7.50;;;4.30;;
75550;SDS011;65071;53.082;18.218;2023-08-12T06:08:14;5.60;;;4.50;;
75550;SDS011;65071;53.082;18.218;2023-08-12T06:10:41;6.80;;;4.80;;
75550;SDS011;65071;53.082;18.218;2023-08-12T06:13:07;7.10;;;4.60;;
75550;SDS011;65071;53.082;18.218;2023-08-12T06:15:34;6.70;;;4.80;;
75550;SDS011;65071;53.082;18.218;2023-08-12T06:18:01;6.30;;;4.90;;
75550;SDS011;65071;53.082;18.218;2023-08-12T06:20:28;8.50;;;4.70;;
75550;SDS011;65071;53.082;18.218;2023-08-12T06:22:55;5.90;;;4.50;;
75550;SDS011;65071;53.082;18.218;2023-08-12T06:25:21;9.60;;;5.30;;
75550;SDS011;65071;53.082;18.218;2023-08-12T06:27:48;7.30;;;5.30;;
75550;SDS011;65071;53.082;18.218;2023-08-12T06:30:14;8.60;;;4.80;;
75550;SDS011;65071;53.082;18.218;2023-08-12T06:32:41;7.20;;;5.30;;
75550;SDS011;65071;53.082;18.218;2023-08-12T06:35:08;7.80;;;5.00;;
75550;SDS011;65071;53.082;18.218;2023-08-12T06:37:34;6.40;;;4.90;;
75550;SDS011;65071;53.082;18.218;2023-08-12T06:40:01;5.40;;;4.60;;
75550;SDS011;65071;53.082;18.218;2023-08-12T06:42:28;7.10;;;5.20;;
75550;SDS011;65071;53.082;18.218;2023-08-12T06:44:55;5.80;;;4.80;;
75550;SDS011;65071;53.082;18.218;2023-08-12T06:47:23;7.70;;;4.90;;
75550;SDS011;65071;53.082;18.218;2023-08-12T06:49:50;7.20;;;4.10;;
75550;SDS011;65071;53.082;18.218;2023-08-12T06:52:16;6.90;;;4.80;;
75550;SDS011;65071;53.082;18.218;2023-08-12T06:54:43;5.80;;;4.70;;
75550;SDS011;65071;53.082;18.218;2023-08-12T06:57:09;6.50;;;4.90;;
75550;SDS011;65071;53.082;18.218;2023-08-12T06:59:38;5.90;;;4.40;;
75550;SDS011;65071;53.082;18.218;2023-08-12T07:02:05;6.20;;;4.80;;
75550;SDS011;65071;53.082;18.218;2023-08-12T07:04:33;6.90;;;4.40;;
75550;SDS011;65071;53.082;18.218;2023-08-12T07:06:59;6.40;;;4.60;;
75550;SDS011;65071;53.082;18.218;2023-08-12T07:09:26;6.50;;;3.70;;
75550;SDS011;65071;53.082;18.218;2023-08-12T07:11:53;5.90;;;4.10;;
75550;SDS011;65071;53.082;18.218;2023-08-12T07:14:19;3.60;;;3.00;;
75550;SDS011;65071;53.082;18.218;2023-08-12T07:16:46;6.70;;;3.40;;
75550;SDS011;65071;53.082;18.218;2023-08-12T07:19:13;4.70;;;3.20;;
75550;SDS011;65071;53.082;18.218;2023-08-12T07:21:39;4.50;;;3.30;;
75550;SDS011;65071;53.082;18.218;2023-08-12T07:24:06;5.00;;;3.30;;
75550;SDS011;65071;53.082;18.218;2023-08-12T07:26:33;6.00;;;3.50;;
75550;SDS011;65071;53.082;18.218;2023-08-12T07:28:59;3.30;;;2.00;;
75550;SDS011;65071;53.082;18.218;2023-08-12T07:31:26;3.30;;;1.80;;
75550;SDS011;65071;53.082;18.218;2023-08-12T07:33:52;3.40;;;1.70;;
75550;SDS011;65071;53.082;18.218;2023-08-12T07:36:19;3.60;;;1.80;;
75550;SDS011;65071;53.082;18.218;2023-08-12T07:38:45;5.00;;;1.90;;
75550;SDS011;65071;53.082;18.218;2023-08-12T07:41:12;2.70;;;1.80;;
75550;SDS011;65071;53.082;18.218;2023-08-12T07:43:39;3.10;;;1.70;;
75550;SDS011;65071;53.082;18.218;2023-08-12T07:46:05;3.00;;;1.90;;
75550;SDS011;65071;53.082;18.218;2023-08-12T07:48:32;1.90;;;1.20;;
75550;SDS011;65071;53.082;18.218;2023-08-12T07:50:58;7.40;;;1.60;;
75550;SDS011;65071;53.082;18.218;2023-08-12T07:53:25;3.80;;;1.80;;
75550;SDS011;65071;53.082;18.218;2023-08-12T07:55:52;2.90;;;1.50;;
75550;SDS011;65071;53.082;18.218;2023-08-12T07:58:19;3.00;;;1.30;;
75550;SDS011;65071;53.082;18.218;2023-08-12T08:00:45;2.10;;;1.50;;
75550;SDS011;65071;53.082;18.218;2023-08-12T08:03:12;3.60;;;1.90;;
75550;SDS011;65071;53.082;18.218;2023-08-12T08:05:41;3.80;;;1.70;;
75550;SDS011;65071;53.082;18.218;2023-08-12T08:08:08;3.30;;;1.40;;
75550;SDS011;65071;53.082;18.218;2023-08-12T08:10:35;4.40;;;2.30;;
75550;SDS011;65071;53.082;18.218;2023-08-12T08:13:01;3.30;;;1.90;;
75550;SDS011;65071;53.082;18.218;2023-08-12T08:15:28;3.90;;;2.00;;
75550;SDS011;65071;53.082;18.218;2023-08-12T08:17:54;3.90;;;2.00;;
75550;SDS011;65071;53.082;18.218;2023-08-12T08:20:21;4.70;;;1.90;;
75550;SDS011;65071;53.082;18.218;2023-08-12T08:22:47;5.00;;;1.70;;
75550;SDS011;65071;53.082;18.218;2023-08-12T08:25:14;3.80;;;2.20;;
75550;SDS011;65071;53.082;18.218;2023-08-12T08:27:40;5.10;;;1.70;;
75550;SDS011;65071;53.082;18.218;2023-08-12T08:30:07;3.60;;;1.70;;
75550;SDS011;65071;53.082;18.218;2023-08-12T08:32:35;3.40;;;1.80;;
75550;SDS011;65071;53.082;18.218;2023-08-12T08:35:01;5.60;;;2.00;;
75550;SDS011;65071;53.082;18.218;2023-08-12T08:37:28;4.10;;;2.30;;
75550;SDS011;65071;53.082;18.218;2023-08-12T08:39:55;3.30;;;1.70;;
75550;SDS011;65071;53.082;18.218;2023-08-12T08:42:21;3.20;;;1.60;;
75550;SDS011;65071;53.082;18.218;2023-08-12T08:44:53;2.10;;;1.40;;
75550;SDS011;65071;53.082;18.218;2023-08-12T08:47:26;6.60;;;1.40;;
75550;SDS011;65071;53.082;18.218;2023-08-12T08:49:54;3.10;;;1.60;;
75550;SDS011;65071;53.082;18.218;2023-08-12T08:52:22;3.80;;;1.60;;
75550;SDS011;65071;53.082;18.218;2023-08-12T08:54:50;3.40;;;1.60;;
75550;SDS011;65071;53.082;18.218;2023-08-12T08:57:20;2.60;;;1.40;;
75550;SDS011;65071;53.082;18.218;2023-08-12T08:59:47;2.70;;;1.20;;
75550;SDS011;65071;53.082;18.218;2023-08-12T09:02:16;2.40;;;1.20;;
75550;SDS011;65071;53.082;18.218;2023-08-12T09:04:44;2.20;;;1.50;;
75550;SDS011;65071;53.082;18.218;2023-08-12T09:07:12;2.50;;;1.30;;
75550;SDS011;65071;53.082;18.218;2023-08-12T09:09:42;2.70;;;1.50;;
75550;SDS011;65071;53.082;18.218;2023-08-12T09:12:13;5.10;;;1.50;;
75550;SDS011;65071;53.082;18.218;2023-08-12T09:17:07;3.30;;;1.40;;
75550;SDS011;65071;53.082;18.218;2023-08-12T09:19:35;2.60;;;1.30;;
75550;SDS011;65071;53.082;18.218;2023-08-12T09:22:05;2.70;;;1.30;;
75550;SDS011;65071;53.082;18.218;2023-08-12T09:24:33;2.30;;;1.40;;
75550;SDS011;65071;53.082;18.218;2023-08-12T09:27:00;2.60;;;1.30;;
75550;SDS011;65071;53.082;18.218;2023-08-12T09:29:30;2.60;;;1.20;;
75550;SDS011;65071;53.082;18.218;2023-08-12T09:34:52;2.30;;;1.40;;
75550;SDS011;65071;53.082;18.218;2023-08-12T09:37:21;1.90;;;1.30;;
75550;SDS011;65071;53.082;18.218;2023-08-12T09:39:50;1.90;;;1.30;;
75550;SDS011;65071;53.082;18.218;2023-08-12T09:42:18;2.40;;;1.30;;
75550;SDS011;65071;53.082;18.218;2023-08-12T09:44:44;3.40;;;1.20;;
75550;SDS011;65071;53.082;18.218;2023-08-12T09:47:12;4.00;;;1.40;;
75550;SDS011;65071;53.082;18.218;2023-08-12T09:49:39;3.00;;;1.30;;
75550;SDS011;65071;53.082;18.218;2023-08-12T09:52:07;2.30;;;1.30;;
75550;SDS011;65071;53.082;18.218;2023-08-12T09:54:34;4.00;;;1.40;;
75550;SDS011;65071;53.082;18.218;2023-08-12T09:57:02;2.70;;;1.40;;
75550;SDS011;65071;53.082;18.218;2023-08-12T09:59:35;2.50;;;1.10;;
75550;SDS011;65071;53.082;18.218;2023-08-12T10:02:04;1.30;;;1.20;;
75550;SDS011;65071;53.082;18.218;2023-08-12T10:04:39;1.40;;;1.30;;
75550;SDS011;65071;53.082;18.218;2023-08-12T10:07:11;2.30;;;1.20;;
75550;SDS011;65071;53.082;18.218;2023-08-12T10:09:41;1.50;;;1.10;;
75550;SDS011;65071;53.082;18.218;2023-08-12T10:12:09;2.40;;;1.40;;
75550;SDS011;65071;53.082;18.218;2023-08-12T10:14:36;3.40;;;1.10;;
75550;SDS011;65071;53.082;18.218;2023-08-12T10:17:04;3.80;;;1.20;;
75550;SDS011;65071;53.082;18.218;2023-08-12T10:19:31;2.10;;;1.20;;
75550;SDS011;65071;53.082;18.218;2023-08-12T10:21:58;2.30;;;1.20;;
75550;SDS011;65071;53.082;18.218;2023-08-12T10:24:26;1.50;;;1.10;;
75550;SDS011;65071;53.082;18.218;2023-08-12T10:26:53;2.00;;;1.00;;
75550;SDS011;65071;53.082;18.218;2023-08-12T10:29:20;2.50;;;1.40;;
75550;SDS011;65071;53.082;18.218;2023-08-12T10:31:50;2.10;;;1.00;;
75550;SDS011;65071;53.082;18.218;2023-08-12T10:34:18;2.00;;;1.10;;
75550;SDS011;65071;53.082;18.218;2023-08-12T10:36:57;3.40;;;1.30;;
75550;SDS011;65071;53.082;18.218;2023-08-12T10:39:28;1.90;;;1.30;;
75550;SDS011;65071;53.082;18.218;2023-08-12T10:41:55;3.40;;;1.20;;
75550;SDS011;65071;53.082;18.218;2023-08-12T10:44:26;2.50;;;1.30;;
75550;SDS011;65071;53.082;18.218;2023-08-12T10:47:07;2.10;;;1.30;;
75550;SDS011;65071;53.082;18.218;2023-08-12T10:49:48;1.60;;;1.00;;
75550;SDS011;65071;53.082;18.218;2023-08-12T10:55:41;3.10;;;1.10;;
75550;SDS011;65071;53.082;18.218;2023-08-12T10:57:50;1.50;;;1.20;;
75550;SDS011;65071;53.082;18.218;2023-08-12T11:02:52;3.10;;;1.30;;
75550;SDS011;65071;53.082;18.218;2023-08-12T11:05:20;2.70;;;1.30;;
75550;SDS011;65071;53.082;18.218;2023-08-12T11:07:48;2.50;;;1.20;;
75550;SDS011;65071;53.082;18.218;2023-08-12T11:10:27;2.90;;;1.20;;
75550;SDS011;65071;53.082;18.218;2023-08-12T11:12:57;2.90;;;1.20;;
75550;SDS011;65071;53.082;18.218;2023-08-12T11:18:18;2.50;;;1.50;;
75550;SDS011;65071;53.082;18.218;2023-08-12T11:20:48;2.60;;;1.40;;
75550;SDS011;65071;53.082;18.218;2023-08-12T11:23:16;1.90;;;1.00;;
75550;SDS011;65071;53.082;18.218;2023-08-12T11:25:43;3.20;;;1.40;;
75550;SDS011;65071;53.082;18.218;2023-08-12T11:28:11;2.30;;;1.30;;
75550;SDS011;65071;53.082;18.218;2023-08-12T11:30:40;3.10;;;1.40;;
75550;SDS011;65071;53.082;18.218;2023-08-12T11:33:08;2.70;;;1.40;;
75550;SDS011;65071;53.082;18.218;2023-08-12T11:35:35;2.50;;;1.20;;
75550;SDS011;65071;53.082;18.218;2023-08-12T11:38:02;2.00;;;1.40;;
75550;SDS011;65071;53.082;18.218;2023-08-12T11:40:31;2.20;;;1.30;;
75550;SDS011;65071;53.082;18.218;2023-08-12T11:42:57;6.10;;;1.50;;
75550;SDS011;65071;53.082;18.218;2023-08-12T11:45:25;1.40;;;1.20;;
75550;SDS011;65071;53.082;18.218;2023-08-12T11:47:53;2.80;;;1.30;;
75550;SDS011;65071;53.082;18.218;2023-08-12T11:50:21;2.30;;;1.10;;
75550;SDS011;65071;53.082;18.218;2023-08-12T11:52:49;5.80;;;1.50;;
75550;SDS011;65071;53.082;18.218;2023-08-12T11:55:17;3.70;;;1.30;;
75550;SDS011;65071;53.082;18.218;2023-08-12T11:57:44;2.60;;;1.50;;
75550;SDS011;65071;53.082;18.218;2023-08-12T12:00:12;2.00;;;1.30;;
75550;SDS011;65071;53.082;18.218;2023-08-12T12:02:48;3.10;;;1.30;;
75550;SDS011;65071;53.082;18.218;2023-08-12T12:05:25;2.80;;;1.30;;
75550;SDS011;65071;53.082;18.218;2023-08-12T12:07:54;3.50;;;1.30;;
75550;SDS011;65071;53.082;18.218;2023-08-12T12:10:25;2.90;;;1.40;;
75550;SDS011;65071;53.082;18.218;2023-08-12T12:12:54;3.10;;;1.40;;
75550;SDS011;65071;53.082;18.218;2023-08-12T12:15:21;4.10;;;1.30;;
75550;SDS011;65071;53.082;18.218;2023-08-12T12:17:51;3.20;;;1.30;;
75550;SDS011;65071;53.082;18.218;2023-08-12T12:20:18;3.30;;;1.20;;
75550;SDS011;65071;53.082;18.218;2023-08-12T12:22:47;3.50;;;1.30;;
75550;SDS011;65071;53.082;18.218;2023-08-12T12:25:15;1.90;;;1.10;;
75550;SDS011;65071;53.082;18.218;2023-08-12T12:27:45;2.10;;;1.30;;
75550;SDS011;65071;53.082;18.218;2023-08-12T12:30:13;1.70;;;1.00;;
75550;SDS011;65071;53.082;18.218;2023-08-12T12:32:40;1.80;;;1.40;;
75550;SDS011;65071;53.082;18.218;2023-08-12T12:35:07;2.90;;;1.30;;
75550;SDS011;65071;53.082;18.218;2023-08-12T12:37:34;2.20;;;1.20;;
75550;SDS011;65071;53.082;18.218;2023-08-12T12:40:01;2.50;;;1.40;;
75550;SDS011;65071;53.082;18.218;2023-08-12T12:42:29;2.10;;;1.30;;
75550;SDS011;65071;53.082;18.218;2023-08-12T12:44:56;1.80;;;1.20;;
75550;SDS011;65071;53.082;18.218;2023-08-12T12:47:23;1.90;;;1.30;;
75550;SDS011;65071;53.082;18.218;2023-08-12T12:49:49;1.10;;;1.00;;
75550;SDS011;65071;53.082;18.218;2023-08-12T12:52:16;2.10;;;1.30;;
75550;SDS011;65071;53.082;18.218;2023-08-12T12:54:43;2.50;;;1.20;;
75550;SDS011;65071;53.082;18.218;2023-08-12T12:57:09;2.50;;;1.30;;
75550;SDS011;65071;53.082;18.218;2023-08-12T12:59:36;4.40;;;1.30;;
75550;SDS011;65071;53.082;18.218;2023-08-12T13:02:03;2.00;;;1.20;;
75550;SDS011;65071;53.082;18.218;2023-08-12T13:04:29;3.40;;;1.30;;
75550;SDS011;65071;53.082;18.218;2023-08-12T13:06:56;2.50;;;1.20;;
75550;SDS011;65071;53.082;18.218;2023-08-12T13:09:22;2.50;;;1.20;;
75550;SDS011;65071;53.082;18.218;2023-08-12T13:11:49;5.70;;;1.30;;
75550;SDS011;65071;53.082;18.218;2023-08-12T13:14:16;1.60;;;1.20;;
75550;SDS011;65071;53.082;18.218;2023-08-12T13:16:45;2.20;;;1.20;;
75550;SDS011;65071;53.082;18.218;2023-08-12T13:19:12;2.60;;;1.30;;
75550;SDS011;65071;53.082;18.218;2023-08-12T13:21:38;2.70;;;1.00;;
75550;SDS011;65071;53.082;18.218;2023-08-12T13:24:05;2.00;;;1.30;;
75550;SDS011;65071;53.082;18.218;2023-08-12T13:26:32;2.10;;;1.10;;
75550;SDS011;65071;53.082;18.218;2023-08-12T13:28:58;2.10;;;1.20;;
75550;SDS011;65071;53.082;18.218;2023-08-12T13:31:25;2.30;;;1.30;;
75550;SDS011;65071;53.082;18.218;2023-08-12T13:33:52;2.70;;;1.30;;
75550;SDS011;65071;53.082;18.218;2023-08-12T13:36:19;1.50;;;1.10;;
75550;SDS011;65071;53.082;18.218;2023-08-12T13:38:45;2.20;;;1.20;;
75550;SDS011;65071;53.082;18.218;2023-08-12T13:41:12;3.90;;;1.30;;
75550;SDS011;65071;53.082;18.218;2023-08-12T13:43:39;4.10;;;1.30;;
75550;SDS011;65071;53.082;18.218;2023-08-12T13:46:05;2.30;;;1.30;;
75550;SDS011;65071;53.082;18.218;2023-08-12T13:48:32;2.60;;;1.10;;
75550;SDS011;65071;53.082;18.218;2023-08-12T13:50:59;1.50;;;1.10;;
75550;SDS011;65071;53.082;18.218;2023-08-12T13:53:26;1.80;;;1.20;;
75550;SDS011;65071;53.082;18.218;2023-08-12T13:55:53;3.00;;;1.20;;
75550;SDS011;65071;53.082;18.218;2023-08-12T13:58:19;2.00;;;1.30;;
75550;SDS011;65071;53.082;18.218;2023-08-12T14:00:46;3.60;;;1.20;;
75550;SDS011;65071;53.082;18.218;2023-08-12T14:03:12;2.50;;;1.30;;
75550;SDS011;65071;53.082;18.218;2023-08-12T14:05:40;1.70;;;1.10;;
75550;SDS011;65071;53.082;18.218;2023-08-12T14:08:06;2.00;;;1.20;;
75550;SDS011;65071;53.082;18.218;2023-08-12T14:10:33;1.80;;;1.20;;
75550;SDS011;65071;53.082;18.218;2023-08-12T14:13:00;3.10;;;1.40;;
75550;SDS011;65071;53.082;18.218;2023-08-12T14:15:26;1.90;;;1.00;;
75550;SDS011;65071;53.082;18.218;2023-08-12T14:17:53;2.70;;;1.40;;
75550;SDS011;65071;53.082;18.218;2023-08-12T14:20:19;3.20;;;1.30;;
75550;SDS011;65071;53.082;18.218;2023-08-12T14:22:46;2.30;;;1.30;;
75550;SDS011;65071;53.082;18.218;2023-08-12T14:25:13;1.30;;;1.20;;
75550;SDS011;65071;53.082;18.218;2023-08-12T14:27:39;2.20;;;1.30;;
75550;SDS011;65071;53.082;18.218;2023-08-12T14:30:07;3.90;;;1.30;;
75550;SDS011;65071;53.082;18.218;2023-08-12T14:32:34;1.90;;;1.10;;
75550;SDS011;65071;53.082;18.218;2023-08-12T14:35:01;3.10;;;1.20;;
75550;SDS011;65071;53.082;18.218;2023-08-12T14:37:28;2.00;;;1.00;;
75550;SDS011;65071;53.082;18.218;2023-08-12T14:39:55;1.60;;;0.90;;
75550;SDS011;65071;53.082;18.218;2023-08-12T14:42:22;2.50;;;1.30;;
75550;SDS011;65071;53.082;18.218;2023-08-12T14:44:49;3.20;;;1.30;;
75550;SDS011;65071;53.082;18.218;2023-08-12T14:47:15;2.30;;;1.20;;
75550;SDS011;65071;53.082;18.218;2023-08-12T14:49:42;1.70;;;1.10;;
75550;SDS011;65071;53.082;18.218;2023-08-12T14:52:19;2.40;;;1.20;;